sensor_id;sensor_type;location;lat;lon;timestamp;temperature;humidity
3648;DHT22;1840;48.892;15.312;2022-07-03T00:00:54;12.90;97.10
3648;DHT22;1840;48.892;15.312;2022-07-03T00:03:22;13.00;97.00
3648;DHT22;1840;48.892;15.312;2022-07-03T00:05:50;13.10;96.70
3648;DHT22;1840;48.892;15.312;2022-07-03T00:08:18;13.00;96.70
3648;DHT22;1840;48.892;15.312;2022-07-03T00:10:47;13.10;96.60
3648;DHT22;1840;48.892;15.312;2022-07-03T00:13:15;13.00;96.80
3648;DHT22;1840;48.892;15.312;2022-07-03T00:15:43;13.00;96.90
3648;DHT22;1840;48.892;15.312;2022-07-03T00:18:11;12.80;97.20
3648;DHT22;1840;48.892;15.312;2022-07-03T00:20:42;12.80;97.20
3648;DHT22;1840;48.892;15.312;2022-07-03T00:23:17;12.70;97.30
3648;DHT22;1840;48.892;15.312;2022-07-03T00:25:49;12.70;97.60
3648;DHT22;1840;48.892;15.312;2022-07-03T00:28:19;12.60;97.30
3648;DHT22;1840;48.892;15.312;2022-07-03T00:30:48;12.40;97.70
3648;DHT22;1840;48.892;15.312;2022-07-03T00:33:16;12.50;98.00
3648;DHT22;1840;48.892;15.312;2022-07-03T00:35:47;12.50;97.90
3648;DHT22;1840;48.892;15.312;2022-07-03T00:38:17;12.50;97.90
3648;DHT22;1840;48.892;15.312;2022-07-03T00:40:47;12.40;97.90
3648;DHT22;1840;48.892;15.312;2022-07-03T00:43:16;12.40;97.90
3648;DHT22;1840;48.892;15.312;2022-07-03T00:45:47;12.30;97.90
3648;DHT22;1840;48.892;15.312;2022-07-03T00:48:17;12.40;97.50
3648;DHT22;1840;48.892;15.312;2022-07-03T00:50:48;12.40;97.70
3648;DHT22;1840;48.892;15.312;2022-07-03T00:53:19;12.40;97.60
3648;DHT22;1840;48.892;15.312;2022-07-03T00:55:53;12.30;97.30
3648;DHT22;1840;48.892;15.312;2022-07-03T00:58:22;12.40;97.30
3648;DHT22;1840;48.892;15.312;2022-07-03T01:00:52;12.40;97.00
3648;DHT22;1840;48.892;15.312;2022-07-03T01:03:21;12.40;97.20
3648;DHT22;1840;48.892;15.312;2022-07-03T01:05:54;12.40;97.20
3648;DHT22;1840;48.892;15.312;2022-07-03T01:08:30;12.40;97.20
3648;DHT22;1840;48.892;15.312;2022-07-03T01:11:07;12.40;97.30
3648;DHT22;1840;48.892;15.312;2022-07-03T01:13:40;12.50;97.20
3648;DHT22;1840;48.892;15.312;2022-07-03T01:16:17;12.50;97.20
3648;DHT22;1840;48.892;15.312;2022-07-03T01:18:50;12.60;97.20
3648;DHT22;1840;48.892;15.312;2022-07-03T01:21:43;12.60;97.10
3648;DHT22;1840;48.892;15.312;2022-07-03T01:24:28;12.60;97.10
3648;DHT22;1840;48.892;15.312;2022-07-03T01:27:06;12.50;97.50
3648;DHT22;1840;48.892;15.312;2022-07-03T01:29:40;12.40;97.30
3648;DHT22;1840;48.892;15.312;2022-07-03T01:32:11;12.40;97.40
3648;DHT22;1840;48.892;15.312;2022-07-03T01:34:44;12.30;97.00
3648;DHT22;1840;48.892;15.312;2022-07-03T01:37:15;12.20;96.80
3648;DHT22;1840;48.892;15.312;2022-07-03T01:39:45;12.10;97.10
3648;DHT22;1840;48.892;15.312;2022-07-03T01:42:24;12.00;97.10
3648;DHT22;1840;48.892;15.312;2022-07-03T01:44:53;12.10;97.00
3648;DHT22;1840;48.892;15.312;2022-07-03T01:47:24;12.10;96.80
3648;DHT22;1840;48.892;15.312;2022-07-03T01:49:55;12.10;96.90
3648;DHT22;1840;48.892;15.312;2022-07-03T01:52:25;12.10;96.80
3648;DHT22;1840;48.892;15.312;2022-07-03T01:55:12;12.00;96.90
3648;DHT22;1840;48.892;15.312;2022-07-03T01:57:44;11.90;97.00
3648;DHT22;1840;48.892;15.312;2022-07-03T02:00:14;11.90;97.00
3648;DHT22;1840;48.892;15.312;2022-07-03T02:02:50;11.80;96.90
3648;DHT22;1840;48.892;15.312;2022-07-03T02:08:11;11.70;96.90
3648;DHT22;1840;48.892;15.312;2022-07-03T02:10:41;11.70;97.00
3648;DHT22;1840;48.892;15.312;2022-07-03T02:13:19;11.60;97.10
3648;DHT22;1840;48.892;15.312;2022-07-03T02:15:51;11.60;97.10
3648;DHT22;1840;48.892;15.312;2022-07-03T02:18:27;11.60;96.90
3648;DHT22;1840;48.892;15.312;2022-07-03T02:21:14;11.60;97.00
3648;DHT22;1840;48.892;15.312;2022-07-03T02:23:52;11.60;97.00
3648;DHT22;1840;48.892;15.312;2022-07-03T02:26:27;11.60;97.00
3648;DHT22;1840;48.892;15.312;2022-07-03T02:29:02;11.50;97.10
3648;DHT22;1840;48.892;15.312;2022-07-03T02:31:37;11.50;97.20
3648;DHT22;1840;48.892;15.312;2022-07-03T02:34:07;11.50;97.20
3648;DHT22;1840;48.892;15.312;2022-07-03T02:36:35;11.40;97.10
3648;DHT22;1840;48.892;15.312;2022-07-03T02:39:10;11.30;97.00
3648;DHT22;1840;48.892;15.312;2022-07-03T02:41:45;11.30;96.80
3648;DHT22;1840;48.892;15.312;2022-07-03T02:44:23;11.20;96.80
3648;DHT22;1840;48.892;15.312;2022-07-03T02:47:00;11.20;97.00
3648;DHT22;1840;48.892;15.312;2022-07-03T02:49:48;11.10;96.80
3648;DHT22;1840;48.892;15.312;2022-07-03T02:52:24;11.10;97.10
3648;DHT22;1840;48.892;15.312;2022-07-03T02:54:59;11.10;97.20
3648;DHT22;1840;48.892;15.312;2022-07-03T02:57:36;11.20;97.30
3648;DHT22;1840;48.892;15.312;2022-07-03T03:00:08;11.10;97.30
3648;DHT22;1840;48.892;15.312;2022-07-03T03:02:57;11.20;97.30
3648;DHT22;1840;48.892;15.312;2022-07-03T03:05:28;11.20;97.20
3648;DHT22;1840;48.892;15.312;2022-07-03T03:08:08;11.20;97.40
3648;DHT22;1840;48.892;15.312;2022-07-03T03:10:39;11.10;97.30
3648;DHT22;1840;48.892;15.312;2022-07-03T03:13:09;11.10;97.50
3648;DHT22;1840;48.892;15.312;2022-07-03T03:15:41;11.10;97.60
3648;DHT22;1840;48.892;15.312;2022-07-03T03:18:12;11.10;97.60
3648;DHT22;1840;48.892;15.312;2022-07-03T03:20:46;11.10;97.50
3648;DHT22;1840;48.892;15.312;2022-07-03T03:23:26;11.00;97.20
3648;DHT22;1840;48.892;15.312;2022-07-03T03:25:57;10.80;97.30
3648;DHT22;1840;48.892;15.312;2022-07-03T03:28:26;10.90;97.00
3648;DHT22;1840;48.892;15.312;2022-07-03T03:30:56;10.80;97.20
3648;DHT22;1840;48.892;15.312;2022-07-03T03:33:24;10.80;97.20
3648;DHT22;1840;48.892;15.312;2022-07-03T03:35:52;10.80;97.30
3648;DHT22;1840;48.892;15.312;2022-07-03T03:38:20;10.80;97.40
3648;DHT22;1840;48.892;15.312;2022-07-03T03:40:49;10.80;97.30
3648;DHT22;1840;48.892;15.312;2022-07-03T03:43:17;10.80;97.60
3648;DHT22;1840;48.892;15.312;2022-07-03T03:45:45;10.80;97.50
3648;DHT22;1840;48.892;15.312;2022-07-03T03:48:15;10.90;97.50
3648;DHT22;1840;48.892;15.312;2022-07-03T03:50:43;10.90;97.30
3648;DHT22;1840;48.892;15.312;2022-07-03T03:53:12;11.00;97.20
3648;DHT22;1840;48.892;15.312;2022-07-03T03:55:53;10.90;97.20
3648;DHT22;1840;48.892;15.312;2022-07-03T03:58:21;10.90;97.60
3648;DHT22;1840;48.892;15.312;2022-07-03T04:00:49;10.90;97.30
3648;DHT22;1840;48.892;15.312;2022-07-03T04:03:21;10.90;97.40
3648;DHT22;1840;48.892;15.312;2022-07-03T04:05:49;10.90;97.50
3648;DHT22;1840;48.892;15.312;2022-07-03T04:08:17;11.00;97.70
3648;DHT22;1840;48.892;15.312;2022-07-03T04:10:45;11.00;97.60
3648;DHT22;1840;48.892;15.312;2022-07-03T04:13:13;11.10;98.00
3648;DHT22;1840;48.892;15.312;2022-07-03T04:15:43;11.10;98.10
3648;DHT22;1840;48.892;15.312;2022-07-03T04:18:17;11.20;98.00
3648;DHT22;1840;48.892;15.312;2022-07-03T04:20:47;11.20;98.20
3648;DHT22;1840;48.892;15.312;2022-07-03T04:23:15;11.30;98.20
3648;DHT22;1840;48.892;15.312;2022-07-03T04:25:43;11.50;97.90
3648;DHT22;1840;48.892;15.312;2022-07-03T04:28:11;11.50;98.00
3648;DHT22;1840;48.892;15.312;2022-07-03T04:30:45;11.50;98.10
3648;DHT22;1840;48.892;15.312;2022-07-03T04:33:14;11.50;98.00
3648;DHT22;1840;48.892;15.312;2022-07-03T04:35:42;11.60;98.40
3648;DHT22;1840;48.892;15.312;2022-07-03T04:38:11;11.60;98.30
3648;DHT22;1840;48.892;15.312;2022-07-03T04:40:39;11.70;98.30
3648;DHT22;1840;48.892;15.312;2022-07-03T04:43:07;11.70;98.40
3648;DHT22;1840;48.892;15.312;2022-07-03T04:45:38;11.90;98.40
3648;DHT22;1840;48.892;15.312;2022-07-03T04:48:09;12.00;98.30
3648;DHT22;1840;48.892;15.312;2022-07-03T04:50:38;12.00;98.40
3648;DHT22;1840;48.892;15.312;2022-07-03T04:53:06;12.10;98.10
3648;DHT22;1840;48.892;15.312;2022-07-03T04:55:35;12.00;98.20
3648;DHT22;1840;48.892;15.312;2022-07-03T04:58:03;12.10;98.50
3648;DHT22;1840;48.892;15.312;2022-07-03T05:00:31;12.30;98.40
3648;DHT22;1840;48.892;15.312;2022-07-03T05:03:00;12.30;98.50
3648;DHT22;1840;48.892;15.312;2022-07-03T05:05:28;12.40;98.40
3648;DHT22;1840;48.892;15.312;2022-07-03T05:07:56;12.50;98.60
3648;DHT22;1840;48.892;15.312;2022-07-03T05:10:24;12.50;98.60
3648;DHT22;1840;48.892;15.312;2022-07-03T05:12:53;12.50;98.60
3648;DHT22;1840;48.892;15.312;2022-07-03T05:15:22;12.80;98.50
3648;DHT22;1840;48.892;15.312;2022-07-03T05:17:50;12.90;98.30
3648;DHT22;1840;48.892;15.312;2022-07-03T05:20:19;13.00;98.60
3648;DHT22;1840;48.892;15.312;2022-07-03T05:22:55;13.10;98.70
3648;DHT22;1840;48.892;15.312;2022-07-03T05:25:24;13.20;98.70
3648;DHT22;1840;48.892;15.312;2022-07-03T05:27:54;13.40;98.70
3648;DHT22;1840;48.892;15.312;2022-07-03T05:30:24;13.40;98.70
3648;DHT22;1840;48.892;15.312;2022-07-03T05:32:53;13.40;98.90
3648;DHT22;1840;48.892;15.312;2022-07-03T05:35:22;13.50;98.90
3648;DHT22;1840;48.892;15.312;2022-07-03T05:37:50;13.70;99.10
3648;DHT22;1840;48.892;15.312;2022-07-03T05:40:18;14.00;98.80
3648;DHT22;1840;48.892;15.312;2022-07-03T05:42:46;14.20;98.90
3648;DHT22;1840;48.892;15.312;2022-07-03T05:45:15;14.30;99.00
3648;DHT22;1840;48.892;15.312;2022-07-03T05:47:43;14.60;99.10
3648;DHT22;1840;48.892;15.312;2022-07-03T05:50:11;14.70;98.30
3648;DHT22;1840;48.892;15.312;2022-07-03T05:52:39;14.80;98.60
3648;DHT22;1840;48.892;15.312;2022-07-03T05:55:08;14.90;98.30
3648;DHT22;1840;48.892;15.312;2022-07-03T05:57:36;14.90;98.40
3648;DHT22;1840;48.892;15.312;2022-07-03T06:00:05;15.10;98.40
3648;DHT22;1840;48.892;15.312;2022-07-03T06:02:35;15.20;97.70
3648;DHT22;1840;48.892;15.312;2022-07-03T06:05:03;15.50;98.30
3648;DHT22;1840;48.892;15.312;2022-07-03T06:07:32;16.10;98.40
3648;DHT22;1840;48.892;15.312;2022-07-03T06:10:00;16.50;98.10
3648;DHT22;1840;48.892;15.312;2022-07-03T06:12:28;16.80;97.10
3648;DHT22;1840;48.892;15.312;2022-07-03T06:14:56;16.90;96.70
3648;DHT22;1840;48.892;15.312;2022-07-03T06:17:28;17.20;96.50
3648;DHT22;1840;48.892;15.312;2022-07-03T06:19:57;17.50;96.50
3648;DHT22;1840;48.892;15.312;2022-07-03T06:22:26;17.90;96.10
3648;DHT22;1840;48.892;15.312;2022-07-03T06:24:54;18.40;95.90
3648;DHT22;1840;48.892;15.312;2022-07-03T06:27:22;18.60;95.20
3648;DHT22;1840;48.892;15.312;2022-07-03T06:29:50;18.80;94.70
3648;DHT22;1840;48.892;15.312;2022-07-03T06:32:18;19.00;94.40
3648;DHT22;1840;48.892;15.312;2022-07-03T06:34:47;19.40;93.90
3648;DHT22;1840;48.892;15.312;2022-07-03T06:37:16;19.50;94.00
3648;DHT22;1840;48.892;15.312;2022-07-03T06:39:45;19.50;94.10
3648;DHT22;1840;48.892;15.312;2022-07-03T06:42:12;19.70;93.90
3648;DHT22;1840;48.892;15.312;2022-07-03T06:44:41;19.70;93.50
3648;DHT22;1840;48.892;15.312;2022-07-03T06:47:09;19.80;93.40
3648;DHT22;1840;48.892;15.312;2022-07-03T06:49:37;19.70;92.40
3648;DHT22;1840;48.892;15.312;2022-07-03T06:52:05;19.60;93.30
3648;DHT22;1840;48.892;15.312;2022-07-03T06:54:35;19.50;92.30
3648;DHT22;1840;48.892;15.312;2022-07-03T06:57:05;19.50;93.00
3648;DHT22;1840;48.892;15.312;2022-07-03T06:59:33;19.70;93.00
3648;DHT22;1840;48.892;15.312;2022-07-03T07:02:01;19.70;93.20
3648;DHT22;1840;48.892;15.312;2022-07-03T07:04:29;19.80;92.70
3648;DHT22;1840;48.892;15.312;2022-07-03T07:06:57;19.80;92.80
3648;DHT22;1840;48.892;15.312;2022-07-03T07:09:25;20.00;92.90
3648;DHT22;1840;48.892;15.312;2022-07-03T07:11:55;19.80;93.00
3648;DHT22;1840;48.892;15.312;2022-07-03T07:14:23;19.80;92.90
3648;DHT22;1840;48.892;15.312;2022-07-03T07:16:51;20.00;92.20
3648;DHT22;1840;48.892;15.312;2022-07-03T07:19:19;20.20;91.80
3648;DHT22;1840;48.892;15.312;2022-07-03T07:21:47;20.30;91.50
3648;DHT22;1840;48.892;15.312;2022-07-03T07:24:16;20.10;91.80
3648;DHT22;1840;48.892;15.312;2022-07-03T07:26:44;20.30;91.80
3648;DHT22;1840;48.892;15.312;2022-07-03T07:29:14;20.40;91.90
3648;DHT22;1840;48.892;15.312;2022-07-03T07:31:42;20.50;91.50
3648;DHT22;1840;48.892;15.312;2022-07-03T07:34:10;19.90;91.30
3648;DHT22;1840;48.892;15.312;2022-07-03T07:36:38;19.60;92.00
3648;DHT22;1840;48.892;15.312;2022-07-03T07:39:07;19.80;92.30
3648;DHT22;1840;48.892;15.312;2022-07-03T07:41:36;20.10;92.40
3648;DHT22;1840;48.892;15.312;2022-07-03T07:44:04;20.40;92.80
3648;DHT22;1840;48.892;15.312;2022-07-03T07:46:33;20.50;92.40
3648;DHT22;1840;48.892;15.312;2022-07-03T07:49:01;20.50;90.70
3648;DHT22;1840;48.892;15.312;2022-07-03T07:51:30;19.80;91.40
3648;DHT22;1840;48.892;15.312;2022-07-03T07:53:58;19.80;92.40
3648;DHT22;1840;48.892;15.312;2022-07-03T07:56:26;19.60;92.20
3648;DHT22;1840;48.892;15.312;2022-07-03T07:58:54;19.90;92.10
3648;DHT22;1840;48.892;15.312;2022-07-03T08:01:22;20.30;92.30
3648;DHT22;1840;48.892;15.312;2022-07-03T08:04:09;20.20;91.90
3648;DHT22;1840;48.892;15.312;2022-07-03T08:06:55;19.90;92.10
3648;DHT22;1840;48.892;15.312;2022-07-03T08:09:23;19.80;92.70
3648;DHT22;1840;48.892;15.312;2022-07-03T08:11:51;20.10;92.90
3648;DHT22;1840;48.892;15.312;2022-07-03T08:14:18;19.90;92.20
3648;DHT22;1840;48.892;15.312;2022-07-03T08:16:46;20.20;92.30
3648;DHT22;1840;48.892;15.312;2022-07-03T08:19:17;20.00;91.90
3648;DHT22;1840;48.892;15.312;2022-07-03T08:21:45;19.90;92.60
3648;DHT22;1840;48.892;15.312;2022-07-03T08:24:13;19.70;91.60
3648;DHT22;1840;48.892;15.312;2022-07-03T08:26:43;19.60;92.40
3648;DHT22;1840;48.892;15.312;2022-07-03T08:29:11;19.80;92.90
3648;DHT22;1840;48.892;15.312;2022-07-03T08:31:39;19.90;92.50
3648;DHT22;1840;48.892;15.312;2022-07-03T08:34:07;19.80;92.20
3648;DHT22;1840;48.892;15.312;2022-07-03T08:36:42;19.60;92.20
3648;DHT22;1840;48.892;15.312;2022-07-03T08:39:10;19.80;92.40
3648;DHT22;1840;48.892;15.312;2022-07-03T08:41:40;19.90;92.40
3648;DHT22;1840;48.892;15.312;2022-07-03T08:44:09;20.00;92.20
3648;DHT22;1840;48.892;15.312;2022-07-03T08:46:39;20.20;91.70
3648;DHT22;1840;48.892;15.312;2022-07-03T08:49:09;20.20;90.90
3648;DHT22;1840;48.892;15.312;2022-07-03T08:51:38;20.30;91.80
3648;DHT22;1840;48.892;15.312;2022-07-03T08:54:10;20.80;90.70
3648;DHT22;1840;48.892;15.312;2022-07-03T08:56:39;21.00;89.90
3648;DHT22;1840;48.892;15.312;2022-07-03T08:59:08;21.10;90.50
3648;DHT22;1840;48.892;15.312;2022-07-03T09:01:36;21.00;90.60
3648;DHT22;1840;48.892;15.312;2022-07-03T09:04:12;20.90;90.20
3648;DHT22;1840;48.892;15.312;2022-07-03T09:06:41;21.00;90.50
3648;DHT22;1840;48.892;15.312;2022-07-03T09:09:11;21.20;88.80
3648;DHT22;1840;48.892;15.312;2022-07-03T09:11:39;21.50;90.30
3648;DHT22;1840;48.892;15.312;2022-07-03T09:14:07;21.40;90.30
3648;DHT22;1840;48.892;15.312;2022-07-03T09:16:36;21.50;89.60
3648;DHT22;1840;48.892;15.312;2022-07-03T09:19:04;21.60;88.00
3648;DHT22;1840;48.892;15.312;2022-07-03T09:21:37;21.60;89.90
3648;DHT22;1840;48.892;15.312;2022-07-03T09:24:07;21.40;89.70
3648;DHT22;1840;48.892;15.312;2022-07-03T09:26:50;21.60;88.90
3648;DHT22;1840;48.892;15.312;2022-07-03T09:29:18;21.60;90.20
3648;DHT22;1840;48.892;15.312;2022-07-03T09:31:54;21.60;90.60
3648;DHT22;1840;48.892;15.312;2022-07-03T09:34:22;21.90;90.10
3648;DHT22;1840;48.892;15.312;2022-07-03T09:36:51;21.90;88.00
3648;DHT22;1840;48.892;15.312;2022-07-03T09:39:21;21.80;90.20
3648;DHT22;1840;48.892;15.312;2022-07-03T09:41:55;21.70;89.10
3648;DHT22;1840;48.892;15.312;2022-07-03T09:44:35;21.70;90.20
3648;DHT22;1840;48.892;15.312;2022-07-03T09:47:11;22.20;90.10
3648;DHT22;1840;48.892;15.312;2022-07-03T09:49:50;22.30;90.00
3648;DHT22;1840;48.892;15.312;2022-07-03T09:52:33;21.90;89.10
3648;DHT22;1840;48.892;15.312;2022-07-03T09:55:12;21.80;90.30
3648;DHT22;1840;48.892;15.312;2022-07-03T09:57:43;21.80;90.20
3648;DHT22;1840;48.892;15.312;2022-07-03T10:00:16;21.90;89.90
3648;DHT22;1840;48.892;15.312;2022-07-03T10:02:52;22.20;90.10
3648;DHT22;1840;48.892;15.312;2022-07-03T10:05:22;21.90;90.20
3648;DHT22;1840;48.892;15.312;2022-07-03T10:07:51;21.60;89.00
3648;DHT22;1840;48.892;15.312;2022-07-03T10:10:20;21.40;90.80
3648;DHT22;1840;48.892;15.312;2022-07-03T10:12:52;21.80;90.90
3648;DHT22;1840;48.892;15.312;2022-07-03T10:15:21;22.20;90.40
3648;DHT22;1840;48.892;15.312;2022-07-03T10:17:50;22.60;89.50
3648;DHT22;1840;48.892;15.312;2022-07-03T10:20:30;22.50;88.70
3648;DHT22;1840;48.892;15.312;2022-07-03T10:22:59;22.90;88.10
3648;DHT22;1840;48.892;15.312;2022-07-03T10:25:27;22.90;87.00
3648;DHT22;1840;48.892;15.312;2022-07-03T10:27:58;23.00;86.60
3648;DHT22;1840;48.892;15.312;2022-07-03T10:30:28;22.90;86.10
3648;DHT22;1840;48.892;15.312;2022-07-03T10:32:56;22.70;88.80
3648;DHT22;1840;48.892;15.312;2022-07-03T10:35:26;22.60;89.70
3648;DHT22;1840;48.892;15.312;2022-07-03T10:40:59;22.70;88.90
3648;DHT22;1840;48.892;15.312;2022-07-03T10:43:47;22.90;88.60
3648;DHT22;1840;48.892;15.312;2022-07-03T10:46:33;23.10;89.60
3648;DHT22;1840;48.892;15.312;2022-07-03T10:49:04;23.20;88.80
3648;DHT22;1840;48.892;15.312;2022-07-03T10:51:52;23.40;87.20
3648;DHT22;1840;48.892;15.312;2022-07-03T10:54:21;23.10;85.60
3648;DHT22;1840;48.892;15.312;2022-07-03T10:57:07;23.10;88.40
3648;DHT22;1840;48.892;15.312;2022-07-03T11:00:09;23.00;90.10
3648;DHT22;1840;48.892;15.312;2022-07-03T11:02:40;23.40;87.70
3648;DHT22;1840;48.892;15.312;2022-07-03T11:05:20;23.70;86.60
3648;DHT22;1840;48.892;15.312;2022-07-03T11:08:10;24.00;86.10
3648;DHT22;1840;48.892;15.312;2022-07-03T11:10:43;24.10;86.40
3648;DHT22;1840;48.892;15.312;2022-07-03T11:13:18;24.10;85.70
3648;DHT22;1840;48.892;15.312;2022-07-03T11:15:52;24.10;88.80
3648;DHT22;1840;48.892;15.312;2022-07-03T11:18:29;23.80;84.90
3648;DHT22;1840;48.892;15.312;2022-07-03T11:24:14;24.10;86.60
3648;DHT22;1840;48.892;15.312;2022-07-03T11:26:45;24.30;87.80
3648;DHT22;1840;48.892;15.312;2022-07-03T11:29:27;24.50;86.70
3648;DHT22;1840;48.892;15.312;2022-07-03T11:35:04;24.70;84.40
3648;DHT22;1840;48.892;15.312;2022-07-03T11:37:32;24.50;83.30
3648;DHT22;1840;48.892;15.312;2022-07-03T11:40:02;24.60;84.50
3648;DHT22;1840;48.892;15.312;2022-07-03T11:42:33;24.70;85.70
3648;DHT22;1840;48.892;15.312;2022-07-03T11:45:02;24.80;85.30
3648;DHT22;1840;48.892;15.312;2022-07-03T11:47:32;25.00;89.20
3648;DHT22;1840;48.892;15.312;2022-07-03T11:50:00;25.40;86.50
3648;DHT22;1840;48.892;15.312;2022-07-03T11:52:32;25.60;83.10
3648;DHT22;1840;48.892;15.312;2022-07-03T11:55:00;25.50;81.70
3648;DHT22;1840;48.892;15.312;2022-07-03T11:57:28;25.70;84.80
3648;DHT22;1840;48.892;15.312;2022-07-03T12:00:04;25.40;80.90
3648;DHT22;1840;48.892;15.312;2022-07-03T12:02:48;25.20;76.70
3648;DHT22;1840;48.892;15.312;2022-07-03T12:05:16;25.00;78.40
3648;DHT22;1840;48.892;15.312;2022-07-03T12:08:02;25.10;77.90
3648;DHT22;1840;48.892;15.312;2022-07-03T12:10:38;24.90;76.30
3648;DHT22;1840;48.892;15.312;2022-07-03T12:13:18;25.00;74.60
3648;DHT22;1840;48.892;15.312;2022-07-03T12:15:46;25.00;74.10
3648;DHT22;1840;48.892;15.312;2022-07-03T12:18:16;24.90;77.60
3648;DHT22;1840;48.892;15.312;2022-07-03T12:20:44;25.20;80.20
3648;DHT22;1840;48.892;15.312;2022-07-03T12:23:12;25.00;76.50
3648;DHT22;1840;48.892;15.312;2022-07-03T12:25:40;25.40;75.30
3648;DHT22;1840;48.892;15.312;2022-07-03T12:28:09;25.50;73.30
3648;DHT22;1840;48.892;15.312;2022-07-03T12:30:38;25.20;74.00
3648;DHT22;1840;48.892;15.312;2022-07-03T12:33:06;25.40;74.20
3648;DHT22;1840;48.892;15.312;2022-07-03T12:35:36;25.60;79.60
3648;DHT22;1840;48.892;15.312;2022-07-03T12:38:04;25.80;76.80
3648;DHT22;1840;48.892;15.312;2022-07-03T12:40:32;25.60;73.90
3648;DHT22;1840;48.892;15.312;2022-07-03T12:43:01;25.80;76.60
3648;DHT22;1840;48.892;15.312;2022-07-03T12:45:29;25.80;77.60
3648;DHT22;1840;48.892;15.312;2022-07-03T12:47:57;25.80;76.90
3648;DHT22;1840;48.892;15.312;2022-07-03T12:50:26;26.00;75.80
3648;DHT22;1840;48.892;15.312;2022-07-03T12:53:02;25.80;74.10
3648;DHT22;1840;48.892;15.312;2022-07-03T12:55:30;25.80;73.80
3648;DHT22;1840;48.892;15.312;2022-07-03T12:58:11;25.90;74.10
3648;DHT22;1840;48.892;15.312;2022-07-03T13:00:57;26.20;74.60
3648;DHT22;1840;48.892;15.312;2022-07-03T13:03:26;26.30;74.00
3648;DHT22;1840;48.892;15.312;2022-07-03T13:06:12;26.40;75.80
3648;DHT22;1840;48.892;15.312;2022-07-03T13:08:50;26.00;75.20
3648;DHT22;1840;48.892;15.312;2022-07-03T13:11:27;26.20;78.70
3648;DHT22;1840;48.892;15.312;2022-07-03T13:14:03;26.40;79.30
3648;DHT22;1840;48.892;15.312;2022-07-03T13:16:37;26.50;76.20
3648;DHT22;1840;48.892;15.312;2022-07-03T13:19:06;26.10;72.40
3648;DHT22;1840;48.892;15.312;2022-07-03T13:21:34;25.90;76.50
3648;DHT22;1840;48.892;15.312;2022-07-03T13:24:04;25.70;74.20
3648;DHT22;1840;48.892;15.312;2022-07-03T13:26:33;25.90;74.60
3648;DHT22;1840;48.892;15.312;2022-07-03T13:29:02;26.10;75.20
3648;DHT22;1840;48.892;15.312;2022-07-03T13:31:30;26.40;74.60
3648;DHT22;1840;48.892;15.312;2022-07-03T13:33:58;26.50;77.00
3648;DHT22;1840;48.892;15.312;2022-07-03T13:36:27;26.60;78.10
3648;DHT22;1840;48.892;15.312;2022-07-03T13:38:55;26.50;73.60
3648;DHT22;1840;48.892;15.312;2022-07-03T13:41:26;26.40;73.80
3648;DHT22;1840;48.892;15.312;2022-07-03T13:43:54;26.60;70.10
3648;DHT22;1840;48.892;15.312;2022-07-03T13:46:22;26.60;74.00
3648;DHT22;1840;48.892;15.312;2022-07-03T13:48:52;26.40;72.90
3648;DHT22;1840;48.892;15.312;2022-07-03T13:51:20;26.50;76.40
3648;DHT22;1840;48.892;15.312;2022-07-03T13:53:48;26.40;73.20
3648;DHT22;1840;48.892;15.312;2022-07-03T13:56:17;26.20;73.70
3648;DHT22;1840;48.892;15.312;2022-07-03T13:58:46;26.10;75.10
3648;DHT22;1840;48.892;15.312;2022-07-03T14:01:18;26.20;77.10
3648;DHT22;1840;48.892;15.312;2022-07-03T14:03:47;26.20;75.60
3648;DHT22;1840;48.892;15.312;2022-07-03T14:06:15;26.30;75.80
3648;DHT22;1840;48.892;15.312;2022-07-03T14:08:43;26.20;75.90
3648;DHT22;1840;48.892;15.312;2022-07-03T14:11:11;26.40;77.60
3648;DHT22;1840;48.892;15.312;2022-07-03T14:13:41;26.60;74.00
3648;DHT22;1840;48.892;15.312;2022-07-03T14:16:12;26.60;74.00
3648;DHT22;1840;48.892;15.312;2022-07-03T14:18:40;26.60;74.70
3648;DHT22;1840;48.892;15.312;2022-07-03T14:21:08;26.70;73.40
3648;DHT22;1840;48.892;15.312;2022-07-03T14:23:37;26.70;70.90
3648;DHT22;1840;48.892;15.312;2022-07-03T14:26:05;26.70;72.10
3648;DHT22;1840;48.892;15.312;2022-07-03T14:28:33;26.70;73.10
3648;DHT22;1840;48.892;15.312;2022-07-03T14:31:20;26.60;75.80
3648;DHT22;1840;48.892;15.312;2022-07-03T14:34:06;26.60;72.60
3648;DHT22;1840;48.892;15.312;2022-07-03T14:36:34;26.70;72.50
3648;DHT22;1840;48.892;15.312;2022-07-03T14:39:11;26.80;73.50
3648;DHT22;1840;48.892;15.312;2022-07-03T14:41:40;27.00;72.50
3648;DHT22;1840;48.892;15.312;2022-07-03T14:44:09;26.90;72.50
3648;DHT22;1840;48.892;15.312;2022-07-03T14:46:38;26.80;70.70
3648;DHT22;1840;48.892;15.312;2022-07-03T14:49:07;26.90;72.40
3648;DHT22;1840;48.892;15.312;2022-07-03T14:51:35;27.00;71.30
3648;DHT22;1840;48.892;15.312;2022-07-03T14:54:03;27.00;76.60
3648;DHT22;1840;48.892;15.312;2022-07-03T14:56:32;27.20;73.10
3648;DHT22;1840;48.892;15.312;2022-07-03T14:59:07;27.30;71.00
3648;DHT22;1840;48.892;15.312;2022-07-03T15:01:36;27.30;72.00
3648;DHT22;1840;48.892;15.312;2022-07-03T15:04:12;27.20;70.50
3648;DHT22;1840;48.892;15.312;2022-07-03T15:06:43;27.20;74.90
3648;DHT22;1840;48.892;15.312;2022-07-03T15:09:16;27.20;73.00
3648;DHT22;1840;48.892;15.312;2022-07-03T15:11:52;27.20;74.00
3648;DHT22;1840;48.892;15.312;2022-07-03T15:14:40;27.30;78.00
3648;DHT22;1840;48.892;15.312;2022-07-03T15:17:11;27.20;75.10
3648;DHT22;1840;48.892;15.312;2022-07-03T15:19:43;27.30;71.70
3648;DHT22;1840;48.892;15.312;2022-07-03T15:22:15;27.20;71.50
3648;DHT22;1840;48.892;15.312;2022-07-03T15:24:43;27.20;72.90
3648;DHT22;1840;48.892;15.312;2022-07-03T15:27:15;27.20;76.10
3648;DHT22;1840;48.892;15.312;2022-07-03T15:29:45;27.20;74.90
3648;DHT22;1840;48.892;15.312;2022-07-03T15:32:14;27.20;76.40
3648;DHT22;1840;48.892;15.312;2022-07-03T15:34:44;27.20;74.90
3648;DHT22;1840;48.892;15.312;2022-07-03T15:37:19;27.20;76.50
3648;DHT22;1840;48.892;15.312;2022-07-03T15:39:55;27.10;75.20
3648;DHT22;1840;48.892;15.312;2022-07-03T15:42:45;27.20;77.00
3648;DHT22;1840;48.892;15.312;2022-07-03T15:45:25;27.30;74.80
3648;DHT22;1840;48.892;15.312;2022-07-03T15:48:03;27.20;74.60
3648;DHT22;1840;48.892;15.312;2022-07-03T15:50:40;27.20;77.00
3648;DHT22;1840;48.892;15.312;2022-07-03T15:53:14;27.20;78.30
3648;DHT22;1840;48.892;15.312;2022-07-03T15:55:43;27.30;73.00
3648;DHT22;1840;48.892;15.312;2022-07-03T15:58:12;27.90;75.70
3648;DHT22;1840;48.892;15.312;2022-07-03T16:00:41;28.20;74.30
3648;DHT22;1840;48.892;15.312;2022-07-03T16:03:34;28.80;73.50
3648;DHT22;1840;48.892;15.312;2022-07-03T16:06:05;29.50;68.50
3648;DHT22;1840;48.892;15.312;2022-07-03T16:08:34;30.00;68.00
3648;DHT22;1840;48.892;15.312;2022-07-03T16:11:05;30.00;67.00
3648;DHT22;1840;48.892;15.312;2022-07-03T16:13:33;29.90;66.20
3648;DHT22;1840;48.892;15.312;2022-07-03T16:16:02;29.60;65.40
3648;DHT22;1840;48.892;15.312;2022-07-03T16:18:31;28.90;69.50
3648;DHT22;1840;48.892;15.312;2022-07-03T16:21:01;28.50;72.30
3648;DHT22;1840;48.892;15.312;2022-07-03T16:23:33;28.20;75.70